Terminal Aerodrome Forecast
Issued by NWS Mt. Holly, NJ

Home | Current Version | Previous Version | Text Only | Print | Product List | Glossary On
Versions: 1 2 3 4 5 6 7 8 9 10 11 12 13 14 15 16 17 18 19 20 21 22 23 24 25 26 27 28 29 30 31 32 33 34 35 36
192
FTAK31 PANC 311742
TAFABE
TAF
PABE 311742Z 3118/0118 06011G18KT P6SM FEW060 SCT100
     FM312100 06012G20KT P6SM SCT080 BKN200
     FM010200 02010KT P6SM VCSH BKN060=

USA.gov is the U.S. government's official web portal to all federal, state and local government web resources and services.